createdAt,value
2019-02-06T00:01:53.748Z,30.97
2019-02-06T00:04:21.175Z,25.20
2019-02-06T00:06:48.686Z,29.20
2019-02-06T00:09:17.879Z,33.73
2019-02-06T00:11:45.603Z,28.87
2019-02-06T00:14:13.359Z,29.20
2019-02-06T00:16:40.928Z,31.43
2019-02-06T00:19:08.543Z,27.70
2019-02-06T00:21:36.435Z,28.70
2019-02-06T00:24:04.378Z,30.00
2019-02-06T00:26:31.816Z,28.40
2019-02-06T00:28:59.329Z,28.40
2019-02-06T00:31:28.893Z,29.43
2019-02-06T00:33:56.258Z,30.30
2019-02-06T00:36:23.899Z,30.03
2019-02-06T00:38:51.707Z,32.83
2019-02-06T00:41:19.225Z,38.07
2019-02-06T00:43:46.728Z,30.60
2019-02-06T00:46:14.554Z,35.10
2019-02-06T00:48:42.019Z,28.90
2019-02-06T00:51:12.423Z,28.13
2019-02-06T00:53:39.867Z,31.23
2019-02-06T00:56:07.497Z,30.37
2019-02-06T00:58:34.967Z,32.93
2019-02-06T01:01:02.727Z,31.40
2019-02-06T01:03:30.281Z,33.23
2019-02-06T01:05:59.356Z,33.33
2019-02-06T01:08:26.801Z,33.03
2019-02-06T01:10:54.170Z,34.00
2019-02-06T01:13:22.164Z,30.17
2019-02-06T01:15:49.654Z,33.77
2019-02-06T01:18:17.000Z,25.97
2019-02-06T01:20:44.489Z,31.20
2019-02-06T01:23:12.240Z,26.20
2019-02-06T01:25:39.835Z,29.37
2019-02-06T01:28:08.233Z,31.53
2019-02-06T01:30:43.751Z,31.37
2019-02-06T01:33:11.495Z,27.33
2019-02-06T01:35:49.645Z,27.20
2019-02-06T01:38:08.524Z,28.10
2019-02-06T01:40:36.802Z,28.73
2019-02-06T01:43:04.393Z,28.17
2019-02-06T01:45:32.107Z,29.40
2019-02-06T01:47:59.555Z,29.27
2019-02-06T01:50:27.100Z,23.90
2019-02-06T01:52:54.629Z,32.90
2019-02-06T01:55:22.064Z,30.03
2019-02-06T01:57:49.527Z,28.50
2019-02-06T02:00:19.198Z,33.80
2019-02-06T02:02:46.735Z,36.87
2019-02-06T02:05:17.064Z,46.67
2019-02-06T02:07:45.147Z,37.27
2019-02-06T02:10:12.951Z,32.43
2019-02-06T02:12:40.511Z,37.87
2019-02-06T02:15:09.282Z,41.27
2019-02-06T04:37:52.760Z,32.43
2019-02-06T04:40:20.292Z,31.03
2019-02-06T04:42:48.315Z,32.80
2019-02-06T04:45:16.663Z,27.50
2019-02-06T04:47:44.390Z,30.43
2019-02-06T04:50:13.045Z,29.27
2019-02-06T04:52:40.471Z,32.07
2019-02-06T04:55:09.523Z,34.10
2019-02-06T04:57:37.031Z,28.60
2019-02-06T05:00:11.032Z,31.20
2019-02-06T05:02:38.635Z,33.33
2019-02-06T05:05:06.008Z,26.60
2019-02-06T05:07:33.502Z,34.17
2019-02-06T05:10:01.037Z,31.80
2019-02-06T05:12:28.623Z,29.00
2019-02-06T05:14:56.131Z,34.70
2019-02-06T05:17:23.893Z,36.57
2019-02-06T05:19:51.349Z,36.53
2019-02-06T05:22:18.848Z,35.97
2019-02-06T05:24:46.168Z,39.00
2019-02-06T05:27:14.953Z,32.27
2019-02-06T05:29:42.435Z,31.93
2019-02-06T05:32:11.034Z,35.30
2019-02-06T05:34:39.014Z,29.00
2019-02-06T05:37:06.531Z,34.10
2019-02-06T05:39:34.144Z,33.50
2019-02-06T05:42:02.145Z,35.40
2019-02-06T05:44:30.929Z,31.93
2019-02-06T05:46:58.472Z,30.33
2019-02-06T05:49:26.274Z,32.47
2019-02-06T05:51:54.167Z,34.33
2019-02-06T05:54:21.796Z,31.27
2019-02-06T05:56:49.313Z,34.10
2019-02-06T05:59:16.918Z,31.50
2019-02-06T06:01:44.893Z,36.13
2019-02-06T06:04:12.400Z,30.77
2019-02-06T06:06:40.311Z,36.17
2019-02-06T06:09:07.978Z,34.30
2019-02-06T06:11:35.917Z,34.73
2019-02-06T06:14:03.396Z,33.50
2019-02-06T06:16:31.112Z,27.77
2019-02-06T06:18:59.087Z,33.40
2019-02-06T06:21:26.761Z,33.93
2019-02-06T06:23:54.678Z,36.73
2019-02-06T06:26:22.479Z,35.13
2019-02-06T06:28:50.039Z,39.13
2019-02-06T06:31:17.677Z,30.67
2019-02-06T06:33:45.257Z,43.50
2019-02-06T06:36:13.329Z,35.50
2019-02-06T06:38:40.993Z,29.87
2019-02-06T06:41:08.480Z,29.30
2019-02-06T06:43:35.917Z,32.07
2019-02-06T06:46:03.433Z,35.73
2019-02-06T06:48:31.366Z,32.40
2019-02-06T06:50:58.849Z,31.43
2019-02-06T06:53:26.354Z,37.87
2019-02-06T06:55:53.927Z,66.50
2019-02-06T06:58:21.483Z,43.43
2019-02-06T07:00:48.995Z,38.70
2019-02-06T07:03:16.511Z,35.33
2019-02-06T07:05:44.439Z,33.97
2019-02-06T07:08:13.516Z,38.80
2019-02-06T07:10:42.514Z,38.20
2019-02-06T07:13:10.123Z,34.70
2019-02-06T07:15:38.035Z,33.70
2019-02-06T07:18:05.517Z,34.87
2019-02-06T07:20:33.007Z,37.53
2019-02-06T07:23:00.790Z,33.17
2019-02-06T07:25:28.375Z,39.97
2019-02-06T07:27:55.868Z,37.53
2019-02-06T07:30:28.612Z,34.33
2019-02-06T07:32:56.333Z,39.87
2019-02-06T07:35:23.855Z,41.47
2019-02-06T07:37:51.533Z,35.37
2019-02-06T07:40:20.081Z,41.57
2019-02-06T07:42:47.679Z,34.00
2019-02-06T07:45:15.625Z,36.37
2019-02-06T07:47:43.275Z,39.07
2019-02-06T07:50:14.037Z,43.57
2019-02-06T07:52:41.553Z,61.70
2019-02-06T07:55:09.721Z,41.43
2019-02-06T07:57:37.722Z,34.93
2019-02-06T08:00:06.580Z,45.80
2019-02-06T08:02:35.336Z,33.27
2019-02-06T08:05:04.138Z,35.17
2019-02-06T08:07:31.464Z,38.57
2019-02-06T08:09:58.956Z,37.37
2019-02-06T08:12:26.417Z,39.30
2019-02-06T08:14:53.777Z,33.47
2019-02-06T08:17:21.376Z,38.10
2019-02-06T08:19:48.865Z,36.20
2019-02-06T08:22:16.360Z,40.60
2019-02-06T08:24:43.932Z,40.77
2019-02-06T08:27:11.507Z,40.03
2019-02-06T08:29:39.091Z,35.10
2019-02-06T08:32:07.187Z,40.50
2019-02-06T08:34:34.727Z,41.80
2019-02-06T08:37:02.714Z,36.73
2019-02-06T08:39:30.074Z,41.00
2019-02-06T08:41:57.580Z,37.63
2019-02-06T08:44:25.170Z,45.03
2019-02-06T08:46:52.730Z,39.80
2019-02-06T08:49:20.774Z,36.73
2019-02-06T08:51:48.294Z,44.27
2019-02-06T08:54:16.006Z,30.63
2019-02-06T08:56:43.901Z,35.43
2019-02-06T08:59:11.383Z,37.47
2019-02-06T09:01:38.859Z,39.23
2019-02-06T09:04:06.440Z,40.33
2019-02-06T09:06:34.503Z,35.47
2019-02-06T09:09:03.995Z,34.80
2019-02-06T09:11:32.579Z,30.07
2019-02-06T09:14:00.084Z,33.47
2019-02-06T09:16:27.426Z,28.33
2019-02-06T09:18:54.780Z,26.40
2019-02-06T09:21:22.346Z,24.10
2019-02-06T09:23:50.180Z,25.57
2019-02-06T09:26:17.767Z,25.53
2019-02-06T09:28:45.182Z,26.93
2019-02-06T09:31:12.695Z,26.77
2019-02-06T09:33:40.197Z,27.33
2019-02-06T09:36:07.764Z,25.80
2019-02-06T09:38:35.249Z,25.77
2019-02-06T09:41:02.583Z,22.10
2019-02-06T09:43:30.396Z,17.30
2019-02-06T09:45:57.745Z,19.17
2019-02-06T09:48:25.103Z,15.40
2019-02-06T09:50:52.856Z,21.07
2019-02-06T09:53:20.361Z,17.47
2019-02-06T09:55:47.758Z,18.70
2019-02-06T09:58:15.276Z,15.17
2019-02-06T10:00:43.338Z,16.87
2019-02-06T10:03:10.803Z,17.13
2019-02-06T10:05:38.752Z,20.63
2019-02-06T10:08:06.443Z,16.87
2019-02-06T10:10:33.899Z,18.23
2019-02-06T10:13:01.819Z,12.83
2019-02-06T10:15:31.497Z,13.10
2019-02-06T10:18:00.734Z,12.17
2019-02-06T10:20:31.256Z,15.87
2019-02-06T10:22:58.981Z,14.33
2019-02-06T10:25:26.711Z,17.60
2019-02-06T10:27:54.276Z,18.57
2019-02-06T10:30:25.947Z,14.93
2019-02-06T10:32:53.391Z,17.37
2019-02-06T10:35:22.667Z,18.17
2019-02-06T10:37:50.029Z,26.47
2019-02-06T10:40:17.516Z,22.50
2019-02-06T10:42:45.075Z,23.60
2019-02-06T10:45:12.941Z,22.03
2019-02-06T10:47:40.652Z,18.70
2019-02-06T10:50:09.838Z,13.67
2019-02-06T10:52:37.335Z,18.33
2019-02-06T10:55:05.911Z,18.33
2019-02-06T10:57:33.466Z,16.77
2019-02-06T11:00:00.926Z,23.13
2019-02-06T11:02:28.890Z,15.03
2019-02-06T11:04:56.970Z,19.40
2019-02-06T11:07:24.413Z,16.57
2019-02-06T11:09:51.875Z,19.87
2019-02-06T11:12:19.759Z,25.70
2019-02-06T11:14:47.188Z,17.53
2019-02-06T11:17:14.718Z,21.97
2019-02-06T11:19:43.155Z,23.33
2019-02-06T11:22:10.885Z,21.70
2019-02-06T11:24:38.565Z,14.23
2019-02-06T11:27:08.019Z,21.90
2019-02-06T11:29:35.488Z,15.03
2019-02-06T11:32:03.149Z,16.83
2019-02-06T11:34:30.705Z,16.97
2019-02-06T11:36:58.060Z,15.10
2019-02-06T11:39:25.622Z,13.23
2019-02-06T11:41:53.112Z,14.40
2019-02-06T11:44:20.942Z,19.60
2019-02-06T11:46:48.818Z,14.20
2019-02-06T11:49:17.501Z,10.30
2019-02-06T11:51:44.924Z,10.33
2019-02-06T11:54:12.725Z,12.17
2019-02-06T11:56:40.205Z,13.87
2019-02-06T11:59:07.627Z,13.63
2019-02-06T12:01:39.807Z,15.60
2019-02-06T12:04:07.376Z,17.40
2019-02-06T12:06:34.903Z,14.17
2019-02-06T12:09:04.373Z,16.90
2019-02-06T12:11:33.744Z,13.67
2019-02-06T12:14:01.162Z,14.13
2019-02-06T12:16:29.172Z,24.80
2019-02-06T12:18:56.848Z,15.30
2019-02-06T12:21:24.287Z,14.03
2019-02-06T12:23:51.779Z,14.63
2019-02-06T12:26:20.170Z,17.23
2019-02-06T12:28:47.588Z,15.27
2019-02-06T12:31:15.157Z,20.93
2019-02-06T12:33:42.557Z,11.60
2019-02-06T12:36:10.425Z,13.73
2019-02-06T12:38:37.976Z,11.90
2019-02-06T12:41:05.475Z,18.77
2019-02-06T12:43:33.259Z,17.00
2019-02-06T12:46:00.707Z,19.93
2019-02-06T12:48:28.415Z,17.10
2019-02-06T12:50:55.874Z,15.27
2019-02-06T12:53:23.341Z,20.80
2019-02-06T12:55:50.932Z,22.77
2019-02-06T12:58:18.483Z,15.20
2019-02-06T13:00:46.190Z,18.17
2019-02-06T13:03:13.679Z,17.50
2019-02-06T13:05:41.190Z,16.50
2019-02-06T13:08:08.822Z,15.97
2019-02-06T13:10:36.449Z,18.60
2019-02-06T13:13:05.160Z,16.97
2019-02-06T13:15:33.118Z,15.67
2019-02-06T13:18:00.632Z,17.50
2019-02-06T13:20:28.637Z,12.83
2019-02-06T13:25:56.561Z,14.63
2019-02-06T13:28:24.086Z,14.03
2019-02-06T13:30:51.622Z,12.50
2019-02-06T13:33:20.133Z,15.67
2019-02-06T13:35:47.959Z,15.47
2019-02-06T13:38:15.292Z,16.33
2019-02-06T13:40:45.534Z,15.53
2019-02-06T13:43:12.197Z,16.37
2019-02-06T13:45:42.334Z,13.67
2019-02-06T13:48:09.842Z,17.27
2019-02-06T13:50:37.334Z,13.57
2019-02-06T13:53:05.143Z,16.10
2019-02-06T13:55:32.904Z,13.60
2019-02-06T13:58:00.410Z,21.07
2019-02-06T14:00:33.687Z,17.47
2019-02-06T14:03:01.208Z,13.80
2019-02-06T14:05:30.192Z,15.17
2019-02-06T14:08:00.116Z,11.27
2019-02-06T14:10:28.207Z,25.30
2019-02-06T14:12:55.804Z,13.07
2019-02-06T14:15:26.185Z,14.97
2019-02-06T14:17:53.664Z,27.20
2019-02-06T14:20:21.634Z,22.63
2019-02-06T14:22:56.031Z,10.77
2019-02-06T14:26:02.716Z,11.83
2019-02-06T14:29:10.364Z,15.17
2019-02-06T14:32:03.307Z,11.93
2019-02-06T14:35:23.779Z,14.50
2019-02-06T14:38:29.116Z,13.13
2019-02-06T14:41:41.686Z,7.37
2019-02-06T14:44:38.077Z,8.97
2019-02-06T14:47:27.450Z,5.57
2019-02-06T14:50:45.706Z,9.70
2019-02-06T14:53:54.921Z,6.43
2019-02-06T14:56:49.307Z,6.20
2019-02-06T14:59:27.839Z,5.07
2019-02-06T15:02:19.455Z,5.60
2019-02-06T15:05:11.911Z,7.27
2019-02-06T15:08:05.581Z,9.13
2019-02-06T15:10:55.084Z,8.00
2019-02-06T15:14:07.235Z,8.13
2019-02-06T15:17:11.393Z,7.10
2019-02-06T15:20:22.200Z,10.27
2019-02-06T15:23:35.819Z,12.97
2019-02-06T15:26:55.813Z,10.97
2019-02-06T15:29:42.164Z,12.07
2019-02-06T15:32:33.279Z,16.93
2019-02-06T15:35:38.647Z,14.47
2019-02-06T15:39:12.440Z,15.83
2019-02-06T15:42:27.340Z,17.73
2019-02-06T15:45:33.165Z,16.00
2019-02-06T15:48:34.259Z,22.17
2019-02-06T15:51:46.201Z,17.10
2019-02-06T15:54:55.595Z,14.60
2019-02-06T15:58:17.112Z,15.43
2019-02-06T16:01:18.067Z,17.00
2019-02-06T16:04:45.011Z,19.80
2019-02-06T16:07:48.970Z,14.90
2019-02-06T16:11:01.152Z,16.63
2019-02-06T16:13:59.363Z,19.60
2019-02-06T16:17:01.746Z,21.10
2019-02-06T16:20:04.827Z,22.10
2019-02-06T16:23:01.274Z,21.87
2019-02-06T16:25:52.726Z,20.90
2019-02-06T16:29:02.946Z,27.13
2019-02-06T16:31:55.716Z,24.63
2019-02-06T16:35:04.455Z,24.30
2019-02-06T16:38:29.355Z,21.17
2019-02-06T16:41:53.914Z,24.37
2019-02-06T16:44:45.928Z,23.03
2019-02-06T16:47:45.341Z,22.20
2019-02-06T16:50:33.187Z,22.07
2019-02-06T16:53:41.599Z,18.67
2019-02-06T16:56:36.939Z,16.77
2019-02-06T17:00:04.660Z,21.13
2019-02-06T17:03:02.347Z,18.07
2019-02-06T17:05:52.646Z,17.07
2019-02-06T17:08:53.041Z,26.93
2019-02-06T17:11:37.058Z,34.63
2019-02-06T17:14:49.268Z,30.13
2019-02-06T17:17:56.491Z,28.37
2019-02-06T17:21:12.201Z,25.20
2019-02-06T17:24:14.252Z,22.03
2019-02-06T17:27:13.487Z,21.63
2019-02-06T17:30:11.779Z,25.67
2019-02-06T17:33:17.316Z,28.33
2019-02-06T17:36:42.602Z,23.93
2019-02-06T17:39:41.896Z,25.20
2019-02-06T17:42:37.909Z,19.97
2019-02-06T17:45:47.576Z,25.00
2019-02-06T17:49:05.723Z,21.63
2019-02-06T17:52:01.350Z,21.87
2019-02-06T17:55:13.662Z,24.67
2019-02-06T17:57:41.430Z,25.23
2019-02-06T18:00:15.618Z,25.10
2019-02-06T18:02:43.249Z,22.60
2019-02-06T18:05:10.796Z,24.73
2019-02-06T18:07:38.576Z,23.97
2019-02-06T18:10:10.244Z,22.80
2019-02-06T18:12:38.045Z,19.13
2019-02-06T18:15:06.208Z,23.53
2019-02-06T18:17:33.672Z,28.57
2019-02-06T18:20:01.487Z,22.67
2019-02-06T18:22:29.515Z,22.00
2019-02-06T18:24:57.051Z,24.17
2019-02-06T18:27:24.827Z,26.40
2019-02-06T18:29:52.703Z,33.60
2019-02-06T18:32:20.507Z,28.80
2019-02-06T18:34:48.333Z,32.87
2019-02-06T18:37:15.979Z,36.33
2019-02-06T18:39:43.809Z,33.20
2019-02-06T18:42:11.385Z,30.43
2019-02-06T18:44:40.079Z,34.57
2019-02-06T18:47:07.735Z,39.23
2019-02-06T18:49:35.536Z,33.13
2019-02-06T18:52:04.620Z,30.63
2019-02-06T18:54:32.485Z,35.47
2019-02-06T18:57:00.129Z,24.10
2019-02-06T18:59:27.698Z,24.97
2019-02-06T19:01:55.652Z,38.77
2019-02-06T19:04:23.523Z,27.43
2019-02-06T19:06:52.059Z,28.77
2019-02-06T19:09:19.904Z,29.37
2019-02-06T19:11:47.297Z,36.63
2019-02-06T19:14:15.395Z,38.10
2019-02-06T19:16:43.182Z,34.97
2019-02-06T19:19:10.977Z,33.57
2019-02-06T19:21:38.618Z,30.47
2019-02-06T19:24:06.265Z,28.63
2019-02-06T19:26:34.092Z,30.60
2019-02-06T19:29:03.196Z,30.07
2019-02-06T19:31:30.821Z,32.37
2019-02-06T19:33:58.478Z,35.90
2019-02-06T19:36:26.055Z,38.30
2019-02-06T19:38:53.546Z,35.67
2019-02-06T19:41:21.534Z,30.97
2019-02-06T19:43:49.438Z,33.93
2019-02-06T19:46:16.992Z,35.13
2019-02-06T19:48:44.632Z,35.80
2019-02-06T19:51:12.605Z,32.83
2019-02-06T19:53:40.202Z,32.27
2019-02-06T19:56:08.140Z,31.63
2019-02-06T19:58:36.064Z,32.17
2019-02-06T20:01:03.890Z,27.77
2019-02-06T20:03:32.121Z,34.13
2019-02-06T20:05:59.691Z,29.00
2019-02-06T20:08:27.315Z,33.87
2019-02-06T20:10:55.707Z,27.40
2019-02-06T20:13:23.165Z,29.73
2019-02-06T20:15:51.082Z,33.37
2019-02-06T20:18:20.556Z,37.83
2019-02-06T20:20:48.242Z,30.17
2019-02-06T20:23:15.851Z,38.90
2019-02-06T20:25:43.387Z,41.20
2019-02-06T20:28:11.084Z,37.13
2019-02-06T20:30:38.651Z,38.50
2019-02-06T20:33:06.244Z,34.00
2019-02-06T20:35:34.526Z,34.13
2019-02-06T20:38:02.159Z,44.97
2019-02-06T20:40:31.942Z,39.57
2019-02-06T20:42:59.516Z,44.50
2019-02-06T20:45:27.056Z,42.80
2019-02-06T20:47:54.788Z,35.63
2019-02-06T20:50:24.653Z,35.53
2019-02-06T20:52:52.416Z,39.13
2019-02-06T20:55:20.468Z,40.07
2019-02-06T20:57:48.470Z,36.77
2019-02-06T21:00:24.308Z,39.20
2019-02-06T21:02:52.031Z,40.53
2019-02-06T21:05:19.583Z,46.17
2019-02-06T21:07:47.438Z,39.23
2019-02-06T21:10:18.995Z,45.20
2019-02-06T21:12:46.603Z,49.30
2019-02-06T21:15:14.596Z,41.30
2019-02-06T21:17:43.306Z,47.87
2019-02-06T21:20:12.979Z,40.17
2019-02-06T21:22:40.696Z,46.03
2019-02-06T21:25:09.721Z,59.20
2019-02-06T21:27:37.691Z,48.43
2019-02-06T21:30:10.295Z,40.93
2019-02-06T21:32:38.021Z,33.00
2019-02-06T21:35:06.113Z,44.70
2019-02-06T21:37:35.009Z,37.80
2019-02-06T21:40:03.740Z,42.27
2019-02-06T21:42:31.651Z,37.63
2019-02-06T21:44:59.189Z,36.03
2019-02-06T21:47:26.976Z,36.70
2019-02-06T21:49:54.587Z,31.27
2019-02-06T21:52:22.589Z,35.07
2019-02-06T21:54:50.071Z,36.40
2019-02-06T21:57:17.520Z,35.20
2019-02-06T21:59:45.535Z,26.87
2019-02-06T22:02:13.059Z,29.57
2019-02-06T22:04:40.640Z,28.27
2019-02-06T22:07:10.016Z,36.30
2019-02-06T22:09:38.645Z,32.30
2019-02-06T22:12:06.366Z,34.20
2019-02-06T22:14:34.001Z,32.87
2019-02-06T22:17:01.798Z,28.67
2019-02-06T22:19:29.403Z,33.03
2019-02-06T22:21:56.961Z,28.37
2019-02-06T22:24:24.546Z,30.53
2019-02-06T22:26:52.291Z,31.33
2019-02-06T22:29:21.002Z,35.33
2019-02-06T22:31:48.556Z,37.00
2019-02-06T22:34:16.265Z,39.00
2019-02-06T22:36:44.223Z,34.83
2019-02-06T22:39:12.256Z,36.80
2019-02-06T22:41:39.917Z,40.13
2019-02-06T22:44:07.391Z,39.63
2019-02-06T22:46:34.848Z,32.53
2019-02-06T22:49:02.729Z,34.70
2019-02-06T22:51:30.489Z,32.03
2019-02-06T22:53:58.262Z,34.70
2019-02-06T22:56:26.159Z,38.83
2019-02-06T22:58:53.712Z,42.50
2019-02-06T23:01:31.357Z,39.23
2019-02-06T23:03:59.147Z,27.13
2019-02-06T23:06:26.899Z,30.93
2019-02-06T23:08:55.486Z,30.80
2019-02-06T23:11:23.162Z,31.23
2019-02-06T23:13:50.754Z,31.73
2019-02-06T23:16:18.570Z,32.50
2019-02-06T23:18:46.246Z,32.10
2019-02-06T23:21:13.978Z,26.97
2019-02-06T23:23:41.452Z,29.23
2019-02-06T23:26:09.192Z,38.23
2019-02-06T23:28:36.773Z,32.43
2019-02-06T23:31:04.282Z,32.87
2019-02-06T23:33:32.876Z,32.47
2019-02-06T23:36:00.399Z,30.37
2019-02-06T23:38:28.478Z,27.30
2019-02-06T23:40:56.258Z,30.03
2019-02-06T23:43:23.743Z,27.70
2019-02-06T23:45:51.219Z,28.47
2019-02-06T23:48:18.655Z,33.53
2019-02-06T23:50:46.134Z,31.33
2019-02-06T23:53:13.744Z,35.10
2019-02-06T23:55:41.969Z,40.40
2019-02-06T23:58:09.505Z,33.03
